sensor_id;sensor_type;location;lat;lon;timestamp;pressure;altitude;pressure_sealevel;temperature;humidity
38227;BME280;24026;49.446;8.576;2023-04-16T00:00:43;100551.00;;;15.11;49.79
38227;BME280;24026;49.446;8.576;2023-04-16T00:03:04;100553.16;;;15.09;49.99
38227;BME280;24026;49.446;8.576;2023-04-16T00:05:24;100552.91;;;15.11;49.73
38227;BME280;24026;49.446;8.576;2023-04-16T00:07:45;100552.91;;;15.11;49.92
38227;BME280;24026;49.446;8.576;2023-04-16T00:10:06;100556.63;;;15.10;49.93
38227;BME280;24026;49.446;8.576;2023-04-16T00:12:26;100548.88;;;15.08;49.86
38227;BME280;24026;49.446;8.576;2023-04-16T00:14:47;100550.75;;;15.08;49.88
38227;BME280;24026;49.446;8.576;2023-04-16T00:17:11;100553.44;;;15.08;49.91
38227;BME280;24026;49.446;8.576;2023-04-16T00:19:31;100556.63;;;15.10;49.60
38227;BME280;24026;49.446;8.576;2023-04-16T00:21:52;100557.47;;;15.10;49.96
38227;BME280;24026;49.446;8.576;2023-04-16T00:24:13;100555.03;;;15.09;49.82
38227;BME280;24026;49.446;8.576;2023-04-16T00:26:33;100560.94;;;15.06;49.77
38227;BME280;24026;49.446;8.576;2023-04-16T00:28:53;100547.00;;;15.04;49.93
38227;BME280;24026;49.446;8.576;2023-04-16T00:31:14;100558.25;;;15.06;49.85
38227;BME280;24026;49.446;8.576;2023-04-16T00:33:35;100560.94;;;15.06;49.94
38227;BME280;24026;49.446;8.576;2023-04-16T00:35:55;100559.56;;;15.03;50.10
38227;BME280;24026;49.446;8.576;2023-04-16T00:38:16;100559.56;;;15.03;50.16
38227;BME280;24026;49.446;8.576;2023-04-16T00:40:37;100556.91;;;15.03;50.18
38227;BME280;24026;49.446;8.576;2023-04-16T00:42:57;100555.03;;;15.04;50.21
38227;BME280;24026;49.446;8.576;2023-04-16T00:45:17;100560.41;;;15.04;50.04
38227;BME280;24026;49.446;8.576;2023-04-16T00:47:38;100566.00;;;15.02;50.19
38227;BME280;24026;49.446;8.576;2023-04-16T00:49:58;100563.06;;;15.04;50.10
38227;BME280;24026;49.446;8.576;2023-04-16T00:52:19;100560.09;;;15.00;50.44
38227;BME280;24026;49.446;8.576;2023-04-16T00:54:39;100568.44;;;15.04;50.03
38227;BME280;24026;49.446;8.576;2023-04-16T00:57:01;100568.69;;;15.02;50.33
38227;BME280;24026;49.446;8.576;2023-04-16T00:59:22;100565.19;;;15.01;50.25
38227;BME280;24026;49.446;8.576;2023-04-16T01:01:42;100568.44;;;15.04;50.13
38227;BME280;24026;49.446;8.576;2023-04-16T01:04:03;100567.06;;;15.01;50.18
38227;BME280;24026;49.446;8.576;2023-04-16T01:06:26;100567.88;;;15.01;50.27
38227;BME280;24026;49.446;8.576;2023-04-16T01:08:47;100568.13;;;15.00;50.28
38227;BME280;24026;49.446;8.576;2023-04-16T01:11:09;100566.00;;;14.97;50.76
38227;BME280;24026;49.446;8.576;2023-04-16T01:13:31;100571.09;;;14.98;50.31
38227;BME280;24026;49.446;8.576;2023-04-16T01:15:51;100574.31;;;15.00;50.19
38227;BME280;24026;49.446;8.576;2023-04-16T01:18:16;100568.13;;;15.00;50.29
38227;BME280;24026;49.446;8.576;2023-04-16T01:20:36;100578.03;;;14.99;50.28
38227;BME280;24026;49.446;8.576;2023-04-16T01:22:57;100574.84;;;14.97;50.18
38227;BME280;24026;49.446;8.576;2023-04-16T01:25:17;100574.56;;;14.99;50.36
38227;BME280;24026;49.446;8.576;2023-04-16T01:27:37;100574.84;;;14.97;50.35
38227;BME280;24026;49.446;8.576;2023-04-16T01:29:58;100577.78;;;14.96;50.45
38227;BME280;24026;49.446;8.576;2023-04-16T01:32:18;100585.81;;;14.96;50.51
38227;BME280;24026;49.446;8.576;2023-04-16T01:34:39;100574.31;;;14.95;50.39
38227;BME280;24026;49.446;8.576;2023-04-16T01:36:59;100589.53;;;14.95;50.51
38227;BME280;24026;49.446;8.576;2023-04-16T01:39:20;100590.09;;;14.97;50.59
38227;BME280;24026;49.446;8.576;2023-04-16T01:41:41;100593.84;;;14.96;50.54
38227;BME280;24026;49.446;8.576;2023-04-16T01:44:01;100590.38;;;14.95;50.51
38227;BME280;24026;49.446;8.576;2023-04-16T01:46:30;100595.72;;;14.95;50.53
38227;BME280;24026;49.446;8.576;2023-04-16T01:48:50;100601.84;;;14.96;50.52
38227;BME280;24026;49.446;8.576;2023-04-16T01:51:13;100600.25;;;14.95;50.49
38227;BME280;24026;49.446;8.576;2023-04-16T01:53:34;100606.16;;;14.97;50.41
38227;BME280;24026;49.446;8.576;2023-04-16T01:55:55;100601.31;;;14.94;50.68
38227;BME280;24026;49.446;8.576;2023-04-16T01:58:15;100602.66;;;14.91;50.83
38227;BME280;24026;49.446;8.576;2023-04-16T02:00:36;100597.28;;;14.91;50.80
38227;BME280;24026;49.446;8.576;2023-04-16T02:02:56;100598.66;;;14.89;51.17
38227;BME280;24026;49.446;8.576;2023-04-16T02:05:17;100602.13;;;14.89;50.84
38227;BME280;24026;49.446;8.576;2023-04-16T02:07:37;100599.44;;;14.89;50.92
38227;BME280;24026;49.446;8.576;2023-04-16T02:09:58;100599.44;;;14.89;51.15
38227;BME280;24026;49.446;8.576;2023-04-16T02:12:18;100605.84;;;14.88;50.84
38227;BME280;24026;49.446;8.576;2023-04-16T02:14:39;100593.56;;;14.87;51.17
38227;BME280;24026;49.446;8.576;2023-04-16T02:16:59;100596.22;;;14.87;51.00
38227;BME280;24026;49.446;8.576;2023-04-16T02:19:20;100596.22;;;14.87;50.97
38227;BME280;24026;49.446;8.576;2023-04-16T02:21:41;100602.66;;;14.86;51.10
38227;BME280;24026;49.446;8.576;2023-04-16T02:24:01;100603.72;;;14.85;51.03
38227;BME280;24026;49.446;8.576;2023-04-16T02:26:22;100603.44;;;14.87;51.18
38227;BME280;24026;49.446;8.576;2023-04-16T02:28:43;100599.97;;;14.86;51.07
38227;BME280;24026;49.446;8.576;2023-04-16T02:31:03;100604.53;;;14.86;51.08
38227;BME280;24026;49.446;8.576;2023-04-16T02:33:24;100598.38;;;14.85;50.87
38227;BME280;24026;49.446;8.576;2023-04-16T02:35:45;100606.41;;;14.85;51.14
38227;BME280;24026;49.446;8.576;2023-04-16T02:38:08;100601.31;;;14.84;51.14
38227;BME280;24026;49.446;8.576;2023-04-16T02:40:28;100599.69;;;14.82;51.29
38227;BME280;24026;49.446;8.576;2023-04-16T02:42:49;100606.94;;;14.82;51.42
38227;BME280;24026;49.446;8.576;2023-04-16T02:45:10;100606.41;;;14.85;51.05
38227;BME280;24026;49.446;8.576;2023-04-16T02:47:30;100609.59;;;14.82;51.16
38227;BME280;24026;49.446;8.576;2023-04-16T02:49:51;100611.19;;;14.83;51.15
38227;BME280;24026;49.446;8.576;2023-04-16T02:52:11;100607.47;;;14.84;51.40
38227;BME280;24026;49.446;8.576;2023-04-16T02:54:32;100614.13;;;14.81;51.19
38227;BME280;24026;49.446;8.576;2023-04-16T02:56:52;100607.19;;;14.80;51.24
38227;BME280;24026;49.446;8.576;2023-04-16T02:59:13;100614.38;;;14.80;51.27
38227;BME280;24026;49.446;8.576;2023-04-16T03:01:33;100614.94;;;14.82;51.31
38227;BME280;24026;49.446;8.576;2023-04-16T03:03:54;100608.50;;;14.78;51.33
38227;BME280;24026;49.446;8.576;2023-04-16T03:06:14;100602.38;;;14.77;51.32
38227;BME280;24026;49.446;8.576;2023-04-16T03:08:35;100605.03;;;14.77;51.31
38227;BME280;24026;49.446;8.576;2023-04-16T03:10:55;100604.25;;;14.77;51.37
38227;BME280;24026;49.446;8.576;2023-04-16T03:13:16;100605.56;;;14.79;51.35
38227;BME280;24026;49.446;8.576;2023-04-16T03:15:36;100607.72;;;14.77;51.43
38227;BME280;24026;49.446;8.576;2023-04-16T03:17:57;100602.88;;;14.74;51.54
38227;BME280;24026;49.446;8.576;2023-04-16T03:20:17;100605.56;;;14.74;51.42
38227;BME280;24026;49.446;8.576;2023-04-16T03:22:39;100610.38;;;14.77;51.57
38227;BME280;24026;49.446;8.576;2023-04-16T03:24:59;100617.88;;;14.75;51.47
38227;BME280;24026;49.446;8.576;2023-04-16T03:27:20;100611.72;;;14.75;51.61
38227;BME280;24026;49.446;8.576;2023-04-16T03:29:40;100610.91;;;14.74;51.45
38227;BME280;24026;49.446;8.576;2023-04-16T03:32:01;100615.47;;;14.74;51.52
38227;BME280;24026;49.446;8.576;2023-04-16T03:34:21;100614.38;;;14.75;51.60
38227;BME280;24026;49.446;8.576;2023-04-16T03:36:42;100625.09;;;14.75;51.59
38227;BME280;24026;49.446;8.576;2023-04-16T03:39:02;100622.41;;;14.75;51.36
38227;BME280;24026;49.446;8.576;2023-04-16T03:41:23;100626.16;;;14.74;51.54
38227;BME280;24026;49.446;8.576;2023-04-16T03:43:43;100625.34;;;14.73;51.60
38227;BME280;24026;49.446;8.576;2023-04-16T03:46:04;100636.88;;;14.74;51.57
38227;BME280;24026;49.446;8.576;2023-04-16T03:48:24;100635.50;;;14.71;51.51
38227;BME280;24026;49.446;8.576;2023-04-16T03:50:45;100632.84;;;14.71;51.56
38227;BME280;24026;49.446;8.576;2023-04-16T03:53:08;100627.22;;;14.73;51.57
38227;BME280;24026;49.446;8.576;2023-04-16T03:55:29;100632.56;;;14.73;51.38
38227;BME280;24026;49.446;8.576;2023-04-16T03:57:50;100628.84;;;14.69;51.54
38227;BME280;24026;49.446;8.576;2023-04-16T04:00:10;100631.50;;;14.69;51.58
38227;BME280;24026;49.446;8.576;2023-04-16T04:02:31;100629.88;;;14.68;51.78
38227;BME280;24026;49.446;8.576;2023-04-16T04:04:51;100623.47;;;14.69;51.71
38227;BME280;24026;49.446;8.576;2023-04-16T04:07:12;100638.44;;;14.70;51.50
38227;BME280;24026;49.446;8.576;2023-04-16T04:09:32;100637.91;;;14.68;51.50
38227;BME280;24026;49.446;8.576;2023-04-16T04:11:53;100638.69;;;14.68;51.76
38227;BME280;24026;49.446;8.576;2023-04-16T04:14:14;100644.88;;;14.69;51.45
38227;BME280;24026;49.446;8.576;2023-04-16T04:16:34;100632.56;;;14.68;51.57
38227;BME280;24026;49.446;8.576;2023-04-16T04:18:54;100640.31;;;14.69;51.66
38227;BME280;24026;49.446;8.576;2023-04-16T04:21:15;100640.59;;;14.68;51.48
38227;BME280;24026;49.446;8.576;2023-04-16T04:23:36;100636.28;;;14.67;51.73
38227;BME280;24026;49.446;8.576;2023-04-16T04:25:56;100639.78;;;14.67;51.66
38227;BME280;24026;49.446;8.576;2023-04-16T04:28:17;100642.47;;;14.67;51.61
38227;BME280;24026;49.446;8.576;2023-04-16T04:30:37;100637.38;;;14.66;51.68
38227;BME280;24026;49.446;8.576;2023-04-16T04:32:58;100652.88;;;14.63;51.89
38227;BME280;24026;49.446;8.576;2023-04-16T04:35:18;100650.75;;;14.66;51.66
38227;BME280;24026;49.446;8.576;2023-04-16T04:37:39;100653.16;;;14.67;51.75
38227;BME280;24026;49.446;8.576;2023-04-16T04:39:59;100658.78;;;14.66;51.56
38227;BME280;24026;49.446;8.576;2023-04-16T04:42:20;100656.38;;;14.64;51.73
38227;BME280;24026;49.446;8.576;2023-04-16T04:44:41;100660.09;;;14.63;51.67
38227;BME280;24026;49.446;8.576;2023-04-16T04:47:01;100669.19;;;14.62;51.90
38227;BME280;24026;49.446;8.576;2023-04-16T04:49:22;100667.84;;;14.64;51.70
38227;BME280;24026;49.446;8.576;2023-04-16T04:51:42;100675.88;;;14.64;51.77
38227;BME280;24026;49.446;8.576;2023-04-16T04:54:03;100674.56;;;14.62;51.77
38227;BME280;24026;49.446;8.576;2023-04-16T04:56:23;100679.63;;;14.63;51.88
38227;BME280;24026;49.446;8.576;2023-04-16T04:58:44;100679.06;;;14.61;51.88
38227;BME280;24026;49.446;8.576;2023-04-16T05:01:04;100685.00;;;14.63;51.46
38227;BME280;24026;49.446;8.576;2023-04-16T05:03:25;100684.16;;;14.63;51.74
38227;BME280;24026;49.446;8.576;2023-04-16T05:05:46;100689.25;;;14.64;51.68
38227;BME280;24026;49.446;8.576;2023-04-16T05:08:06;100690.88;;;14.66;51.77
38227;BME280;24026;49.446;8.576;2023-04-16T05:10:27;100685.53;;;14.66;51.70
38227;BME280;24026;49.446;8.576;2023-04-16T05:12:47;100691.41;;;14.62;51.96
38227;BME280;24026;49.446;8.576;2023-04-16T05:15:08;100691.13;;;14.64;51.77
38227;BME280;24026;49.446;8.576;2023-04-16T05:17:29;100686.03;;;14.62;51.87
38227;BME280;24026;49.446;8.576;2023-04-16T05:19:49;100693.00;;;14.63;51.57
38227;BME280;24026;49.446;8.576;2023-04-16T05:22:10;100690.59;;;14.62;51.59
38227;BME280;24026;49.446;8.576;2023-04-16T05:24:31;100693.81;;;14.64;51.74
38227;BME280;24026;49.446;8.576;2023-04-16T05:26:51;100693.81;;;14.64;51.52
38227;BME280;24026;49.446;8.576;2023-04-16T05:29:11;100698.38;;;14.63;51.77
38227;BME280;24026;49.446;8.576;2023-04-16T05:31:32;100702.09;;;14.62;51.70
38227;BME280;24026;49.446;8.576;2023-04-16T05:33:52;100699.41;;;14.62;51.78
38227;BME280;24026;49.446;8.576;2023-04-16T05:36:13;100700.47;;;14.61;51.60
38227;BME280;24026;49.446;8.576;2023-04-16T05:38:33;100699.94;;;14.59;51.75
38227;BME280;24026;49.446;8.576;2023-04-16T05:40:54;100703.16;;;14.61;51.84
38227;BME280;24026;49.446;8.576;2023-04-16T05:43:15;100697.81;;;14.61;51.73
38227;BME280;24026;49.446;8.576;2023-04-16T05:45:35;100703.16;;;14.61;51.99
38227;BME280;24026;49.446;8.576;2023-04-16T05:48:00;100710.38;;;14.61;51.83
38227;BME280;24026;49.446;8.576;2023-04-16T05:50:20;100705.81;;;14.61;51.69
38227;BME280;24026;49.446;8.576;2023-04-16T05:52:40;100709.06;;;14.63;51.72
38227;BME280;24026;49.446;8.576;2023-04-16T05:55:01;100710.91;;;14.63;51.61
38227;BME280;24026;49.446;8.576;2023-04-16T05:57:21;100711.75;;;14.63;51.69
38227;BME280;24026;49.446;8.576;2023-04-16T05:59:42;100706.38;;;14.63;51.53
38227;BME280;24026;49.446;8.576;2023-04-16T06:02:02;100719.19;;;14.61;51.81
38227;BME280;24026;49.446;8.576;2023-04-16T06:04:23;100713.84;;;14.61;51.79
38227;BME280;24026;49.446;8.576;2023-04-16T06:06:43;100716.53;;;14.61;51.81
38227;BME280;24026;49.446;8.576;2023-04-16T06:09:03;100726.16;;;14.62;51.74
38227;BME280;24026;49.446;8.576;2023-04-16T06:11:24;100728.84;;;14.62;51.75
38227;BME280;24026;49.446;8.576;2023-04-16T06:13:46;100730.47;;;14.63;51.65
38227;BME280;24026;49.446;8.576;2023-04-16T06:16:07;100731.25;;;14.64;51.45
38227;BME280;24026;49.446;8.576;2023-04-16T06:18:27;100723.50;;;14.62;51.50
38227;BME280;24026;49.446;8.576;2023-04-16T06:20:48;100734.44;;;14.61;51.64
38227;BME280;24026;49.446;8.576;2023-04-16T06:23:08;100734.19;;;14.62;51.76
38227;BME280;24026;49.446;8.576;2023-04-16T06:25:29;100737.66;;;14.63;51.59
38227;BME280;24026;49.446;8.576;2023-04-16T06:27:49;100733.13;;;14.63;51.48
38227;BME280;24026;49.446;8.576;2023-04-16T06:30:11;100741.16;;;14.63;51.75
38227;BME280;24026;49.446;8.576;2023-04-16T06:32:32;100741.41;;;14.62;51.48
38227;BME280;24026;49.446;8.576;2023-04-16T06:34:52;100745.41;;;14.59;51.67
38227;BME280;24026;49.446;8.576;2023-04-16T06:37:13;100746.78;;;14.62;51.32
38227;BME280;24026;49.446;8.576;2023-04-16T06:39:34;100749.19;;;14.63;51.77
38227;BME280;24026;49.446;8.576;2023-04-16T06:41:54;100749.19;;;14.63;51.62
38227;BME280;24026;49.446;8.576;2023-04-16T06:44:15;100745.94;;;14.61;51.49
38227;BME280;24026;49.446;8.576;2023-04-16T06:46:36;100752.13;;;14.62;51.56
38227;BME280;24026;49.446;8.576;2023-04-16T06:48:56;100753.44;;;14.59;51.46
38227;BME280;24026;49.446;8.576;2023-04-16T06:51:17;100752.38;;;14.60;51.69
38227;BME280;24026;49.446;8.576;2023-04-16T06:53:37;100756.09;;;14.59;51.57
38227;BME280;24026;49.446;8.576;2023-04-16T06:55:58;100756.91;;;14.60;51.51
38227;BME280;24026;49.446;8.576;2023-04-16T06:58:18;100761.69;;;14.58;51.68
38227;BME280;24026;49.446;8.576;2023-04-16T07:00:39;100757.97;;;14.59;51.60
38227;BME280;24026;49.446;8.576;2023-04-16T07:03:00;100765.44;;;14.57;51.69
38227;BME280;24026;49.446;8.576;2023-04-16T07:05:20;100759.84;;;14.58;51.76
38227;BME280;24026;49.446;8.576;2023-04-16T07:07:40;100768.13;;;14.57;51.71
38227;BME280;24026;49.446;8.576;2023-04-16T07:10:01;100773.47;;;14.57;51.67
38227;BME280;24026;49.446;8.576;2023-04-16T07:12:21;100770.22;;;14.55;51.85
38227;BME280;24026;49.446;8.576;2023-04-16T07:14:42;100766.00;;;14.59;51.61
38227;BME280;24026;49.446;8.576;2023-04-16T07:17:02;100773.22;;;14.58;51.43
38227;BME280;24026;49.446;8.576;2023-04-16T07:19:23;100770.53;;;14.58;51.67
38227;BME280;24026;49.446;8.576;2023-04-16T07:21:43;100778.56;;;14.58;51.65
38227;BME280;24026;49.446;8.576;2023-04-16T07:24:05;100776.94;;;14.57;51.54
38227;BME280;24026;49.446;8.576;2023-04-16T07:26:25;100775.88;;;14.58;51.51
38227;BME280;24026;49.446;8.576;2023-04-16T07:28:46;100770.53;;;14.58;51.70
38227;BME280;24026;49.446;8.576;2023-04-16T07:31:06;100774.25;;;14.57;51.32
38227;BME280;24026;49.446;8.576;2023-04-16T07:33:27;100777.19;;;14.56;51.56
38227;BME280;24026;49.446;8.576;2023-04-16T07:35:47;100780.41;;;14.58;51.46
38227;BME280;24026;49.446;8.576;2023-04-16T07:38:08;100777.50;;;14.59;51.84
38227;BME280;24026;49.446;8.576;2023-04-16T07:40:29;100776.94;;;14.57;51.49
38227;BME280;24026;49.446;8.576;2023-04-16T07:42:49;100784.72;;;14.59;51.44
38227;BME280;24026;49.446;8.576;2023-04-16T07:45:10;100792.75;;;14.59;51.40
38227;BME280;24026;49.446;8.576;2023-04-16T07:47:31;100785.75;;;14.58;51.62
38227;BME280;24026;49.446;8.576;2023-04-16T07:49:51;100785.53;;;14.59;51.64
38227;BME280;24026;49.446;8.576;2023-04-16T07:52:13;100792.69;;;14.54;51.65
38227;BME280;24026;49.446;8.576;2023-04-16T07:54:33;100786.53;;;14.53;51.76
38227;BME280;24026;49.446;8.576;2023-04-16T07:56:53;100794.03;;;14.56;51.58
38227;BME280;24026;49.446;8.576;2023-04-16T07:59:14;100791.94;;;14.58;51.60
38227;BME280;24026;49.446;8.576;2023-04-16T08:01:35;100792.50;;;14.60;51.44
38227;BME280;24026;49.446;8.576;2023-04-16T08:03:55;100788.44;;;14.58;51.59
38227;BME280;24026;49.446;8.576;2023-04-16T08:06:16;100790.81;;;14.54;51.60
38227;BME280;24026;49.446;8.576;2023-04-16T08:08:36;100797.53;;;14.57;51.68
38227;BME280;24026;49.446;8.576;2023-04-16T08:10:57;100802.06;;;14.56;51.58
38227;BME280;24026;49.446;8.576;2023-04-16T08:13:18;100802.06;;;14.56;51.52
38227;BME280;24026;49.446;8.576;2023-04-16T08:15:38;100811.22;;;14.60;51.52
38227;BME280;24026;49.446;8.576;2023-04-16T08:17:59;100804.78;;;14.61;51.46
38227;BME280;24026;49.446;8.576;2023-04-16T08:20:19;100809.09;;;14.62;51.39
38227;BME280;24026;49.446;8.576;2023-04-16T08:22:40;100807.47;;;14.61;51.48
38227;BME280;24026;49.446;8.576;2023-04-16T08:25:02;100812.56;;;14.63;51.33
38227;BME280;24026;49.446;8.576;2023-04-16T08:27:23;100807.47;;;14.61;51.45
38227;BME280;24026;49.446;8.576;2023-04-16T08:29:43;100816.88;;;14.64;51.54
38227;BME280;24026;49.446;8.576;2023-04-16T08:32:04;100816.56;;;14.60;51.55
38227;BME280;24026;49.446;8.576;2023-04-16T08:34:25;100823.53;;;14.61;51.41
38227;BME280;24026;49.446;8.576;2023-04-16T08:36:46;100827.81;;;14.62;51.42
38227;BME280;24026;49.446;8.576;2023-04-16T08:39:06;100825.94;;;14.63;51.59
38227;BME280;24026;49.446;8.576;2023-04-16T08:41:30;100824.63;;;14.66;51.17
38227;BME280;24026;49.446;8.576;2023-04-16T08:43:53;100832.13;;;14.63;51.36
38227;BME280;24026;49.446;8.576;2023-04-16T08:46:16;100826.75;;;14.63;51.44
38227;BME280;24026;49.446;8.576;2023-04-16T08:48:37;100829.19;;;14.65;51.29
38227;BME280;24026;49.446;8.576;2023-04-16T08:50:59;100834.53;;;14.65;51.33
38227;BME280;24026;49.446;8.576;2023-04-16T08:53:21;100839.34;;;14.68;51.36
38227;BME280;24026;49.446;8.576;2023-04-16T08:55:49;100838.53;;;14.68;51.07
38227;BME280;24026;49.446;8.576;2023-04-16T08:58:18;100839.59;;;14.67;51.24
38227;BME280;24026;49.446;8.576;2023-04-16T09:00:39;100844.66;;;14.63;51.44
38227;BME280;24026;49.446;8.576;2023-04-16T09:03:03;100839.06;;;14.64;51.35
38227;BME280;24026;49.446;8.576;2023-04-16T09:05:24;100840.13;;;14.63;51.56
38227;BME280;24026;49.446;8.576;2023-04-16T09:07:47;100847.91;;;14.65;51.29
38227;BME280;24026;49.446;8.576;2023-04-16T09:10:08;100850.31;;;14.67;51.41
38227;BME280;24026;49.446;8.576;2023-04-16T09:12:29;100852.19;;;14.66;51.38
38227;BME280;24026;49.446;8.576;2023-04-16T09:14:51;100851.94;;;14.68;51.28
38227;BME280;24026;49.446;8.576;2023-04-16T09:17:12;100855.66;;;14.67;51.34
38227;BME280;24026;49.446;8.576;2023-04-16T09:19:33;100849.25;;;14.68;51.60
38227;BME280;24026;49.446;8.576;2023-04-16T09:21:54;100861.81;;;14.67;51.35
38227;BME280;24026;49.446;8.576;2023-04-16T09:24:15;100854.06;;;14.66;51.46
38227;BME280;24026;49.446;8.576;2023-04-16T09:26:35;100865.56;;;14.66;51.34
38227;BME280;24026;49.446;8.576;2023-04-16T09:28:56;100858.31;;;14.67;51.63
38227;BME280;24026;49.446;8.576;2023-04-16T09:31:17;100857.78;;;14.64;51.43
38227;BME280;24026;49.446;8.576;2023-04-16T09:33:38;100865.31;;;14.68;51.60
38227;BME280;24026;49.446;8.576;2023-04-16T09:35:59;100868.22;;;14.66;51.35
38227;BME280;24026;49.446;8.576;2023-04-16T09:38:20;100863.97;;;14.65;51.48
38227;BME280;24026;49.446;8.576;2023-04-16T09:40:40;100868.47;;;14.64;51.48
38227;BME280;24026;49.446;8.576;2023-04-16T09:43:09;100871.16;;;14.64;51.53
38227;BME280;24026;49.446;8.576;2023-04-16T09:45:30;100870.09;;;14.66;51.79
38227;BME280;24026;49.446;8.576;2023-04-16T09:47:51;100876.75;;;14.63;51.64
38227;BME280;24026;49.446;8.576;2023-04-16T09:50:17;100868.75;;;14.63;51.75
38227;BME280;24026;49.446;8.576;2023-04-16T09:52:38;100872.25;;;14.63;51.86
38227;BME280;24026;49.446;8.576;2023-04-16T09:54:59;100870.38;;;14.64;51.87
38227;BME280;24026;49.446;8.576;2023-04-16T09:57:21;100871.16;;;14.64;51.71
38227;BME280;24026;49.446;8.576;2023-04-16T09:59:42;100878.38;;;14.64;51.73
38227;BME280;24026;49.446;8.576;2023-04-16T10:02:02;100879.19;;;14.64;52.05
38227;BME280;24026;49.446;8.576;2023-04-16T10:04:23;100878.38;;;14.64;51.86
38227;BME280;24026;49.446;8.576;2023-04-16T10:06:43;100884.00;;;14.62;51.85
38227;BME280;24026;49.446;8.576;2023-04-16T10:09:07;100881.31;;;14.62;52.07
38227;BME280;24026;49.446;8.576;2023-04-16T10:11:28;100881.31;;;14.62;51.97
38227;BME280;24026;49.446;8.576;2023-04-16T10:13:50;100881.06;;;14.64;52.15
38227;BME280;24026;49.446;8.576;2023-04-16T10:16:10;100885.63;;;14.63;52.06
38227;BME280;24026;49.446;8.576;2023-04-16T10:18:31;100887.22;;;14.64;52.07
38227;BME280;24026;49.446;8.576;2023-04-16T10:20:52;100884.78;;;14.63;52.23
38227;BME280;24026;49.446;8.576;2023-04-16T10:23:13;100889.34;;;14.62;52.19
38227;BME280;24026;49.446;8.576;2023-04-16T10:25:33;100898.41;;;14.61;52.33
38227;BME280;24026;49.446;8.576;2023-04-16T10:27:55;100891.72;;;14.59;52.20
38227;BME280;24026;49.446;8.576;2023-04-16T10:30:16;100889.84;;;14.59;52.51
38227;BME280;24026;49.446;8.576;2023-04-16T10:32:38;100894.69;;;14.62;52.21
38227;BME280;24026;49.446;8.576;2023-04-16T10:34:58;100897.06;;;14.59;52.29
38227;BME280;24026;49.446;8.576;2023-04-16T10:37:28;100893.31;;;14.60;52.27
38227;BME280;24026;49.446;8.576;2023-04-16T10:39:51;100891.47;;;14.60;52.53
38227;BME280;24026;49.446;8.576;2023-04-16T10:42:11;100893.06;;;14.61;52.28
38227;BME280;24026;49.446;8.576;2023-04-16T10:44:32;100897.38;;;14.62;52.35
38227;BME280;24026;49.446;8.576;2023-04-16T10:46:53;100900.03;;;14.62;52.35
38227;BME280;24026;49.446;8.576;2023-04-16T10:49:24;100893.31;;;14.60;52.44
38227;BME280;24026;49.446;8.576;2023-04-16T10:52:07;100896.25;;;14.58;52.50
38227;BME280;24026;49.446;8.576;2023-04-16T10:54:29;100893.00;;;14.56;52.61
38227;BME280;24026;49.446;8.576;2023-04-16T10:56:51;100897.63;;;14.61;52.49
38227;BME280;24026;49.446;8.576;2023-04-16T10:59:12;100897.88;;;14.59;52.45
38227;BME280;24026;49.446;8.576;2023-04-16T11:01:34;100895.50;;;14.63;52.50
38227;BME280;24026;49.446;8.576;2023-04-16T11:03:55;100891.47;;;14.60;52.62
38227;BME280;24026;49.446;8.576;2023-04-16T11:06:24;100893.31;;;14.60;52.64
38227;BME280;24026;49.446;8.576;2023-04-16T11:08:45;100895.50;;;14.63;52.58
38227;BME280;24026;49.446;8.576;2023-04-16T11:11:06;100895.75;;;14.61;52.62
38227;BME280;24026;49.446;8.576;2023-04-16T11:13:27;100900.53;;;14.59;52.56
38227;BME280;24026;49.446;8.576;2023-04-16T11:15:47;100897.63;;;14.61;52.61
38227;BME280;24026;49.446;8.576;2023-04-16T11:18:08;100894.63;;;14.57;52.76
38227;BME280;24026;49.446;8.576;2023-04-16T11:20:29;100893.31;;;14.60;52.72
38227;BME280;24026;49.446;8.576;2023-04-16T11:22:56;100894.16;;;14.60;52.67
38227;BME280;24026;49.446;8.576;2023-04-16T11:25:28;100899.25;;;14.62;52.61
38227;BME280;24026;49.446;8.576;2023-04-16T11:27:49;100901.09;;;14.61;52.95
38227;BME280;24026;49.446;8.576;2023-04-16T11:30:11;100903.78;;;14.61;52.77
38227;BME280;24026;49.446;8.576;2023-04-16T11:32:43;100898.91;;;14.58;52.76
38227;BME280;24026;49.446;8.576;2023-04-16T11:35:15;100893.06;;;14.61;52.56
38227;BME280;24026;49.446;8.576;2023-04-16T11:37:37;100901.66;;;14.63;52.72
38227;BME280;24026;49.446;8.576;2023-04-16T11:39:57;100896.81;;;14.60;52.69
38227;BME280;24026;49.446;8.576;2023-04-16T11:42:21;100901.91;;;14.62;52.72
38227;BME280;24026;49.446;8.576;2023-04-16T11:44:42;100903.78;;;14.61;52.71
38227;BME280;24026;49.446;8.576;2023-04-16T11:47:04;100902.72;;;14.62;52.77
38227;BME280;24026;49.446;8.576;2023-04-16T11:49:28;100902.16;;;14.60;52.76
38227;BME280;24026;49.446;8.576;2023-04-16T11:51:51;100906.94;;;14.58;52.87
38227;BME280;24026;49.446;8.576;2023-04-16T11:54:22;100899.75;;;14.59;52.83
38227;BME280;24026;49.446;8.576;2023-04-16T11:56:44;100905.13;;;14.64;52.71
38227;BME280;24026;49.446;8.576;2023-04-16T12:01:39;100910.75;;;14.62;52.65
38227;BME280;24026;49.446;8.576;2023-04-16T12:04:00;100905.66;;;14.61;52.72
38227;BME280;24026;49.446;8.576;2023-04-16T12:06:21;100900.03;;;14.62;52.70
38227;BME280;24026;49.446;8.576;2023-04-16T12:08:42;100899.25;;;14.62;52.78
38227;BME280;24026;49.446;8.576;2023-04-16T12:11:02;100905.41;;;14.62;52.74
38227;BME280;24026;49.446;8.576;2023-04-16T12:13:23;100901.66;;;14.63;52.66
38227;BME280;24026;49.446;8.576;2023-04-16T12:15:54;100905.41;;;14.62;52.79
38227;BME280;24026;49.446;8.576;2023-04-16T12:18:21;100905.41;;;14.62;52.81
38227;BME280;24026;49.446;8.576;2023-04-16T12:20:44;100898.66;;;14.60;52.93